sensor_id;sensor_type;location;lat;lon;timestamp;P1;durP1;ratioP1;P2;durP2;ratioP2
16270;SDS011;8243;49.048;8.396;2023-02-19T00:01:06;5.00;;;4.60;;
16270;SDS011;8243;49.048;8.396;2023-02-19T00:03:44;5.70;;;5.10;;
16270;SDS011;8243;49.048;8.396;2023-02-19T00:06:13;6.40;;;5.40;;
16270;SDS011;8243;49.048;8.396;2023-02-19T00:08:38;5.60;;;5.10;;
16270;SDS011;8243;49.048;8.396;2023-02-19T00:11:05;5.50;;;5.00;;
16270;SDS011;8243;49.048;8.396;2023-02-19T00:13:39;4.90;;;4.47;;
16270;SDS011;8243;49.048;8.396;2023-02-19T00:16:06;4.80;;;4.40;;
16270;SDS011;8243;49.048;8.396;2023-02-19T00:18:33;5.00;;;4.60;;
16270;SDS011;8243;49.048;8.396;2023-02-19T00:21:02;5.47;;;4.97;;
16270;SDS011;8243;49.048;8.396;2023-02-19T00:23:28;4.73;;;4.33;;
16270;SDS011;8243;49.048;8.396;2023-02-19T00:25:54;4.63;;;4.23;;
16270;SDS011;8243;49.048;8.396;2023-02-19T00:28:20;4.90;;;4.50;;
16270;SDS011;8243;49.048;8.396;2023-02-19T00:30:46;4.00;;;3.60;;
16270;SDS011;8243;49.048;8.396;2023-02-19T00:33:12;4.57;;;4.17;;
16270;SDS011;8243;49.048;8.396;2023-02-19T00:35:37;4.53;;;4.13;;
16270;SDS011;8243;49.048;8.396;2023-02-19T00:38:03;5.10;;;4.60;;
16270;SDS011;8243;49.048;8.396;2023-02-19T00:40:29;4.87;;;4.47;;
16270;SDS011;8243;49.048;8.396;2023-02-19T00:42:55;4.30;;;4.00;;
16270;SDS011;8243;49.048;8.396;2023-02-19T00:45:20;5.00;;;4.50;;
16270;SDS011;8243;49.048;8.396;2023-02-19T00:47:46;3.93;;;3.63;;
16270;SDS011;8243;49.048;8.396;2023-02-19T00:50:11;4.20;;;3.83;;
16270;SDS011;8243;49.048;8.396;2023-02-19T00:52:37;3.80;;;3.50;;
16270;SDS011;8243;49.048;8.396;2023-02-19T00:55:03;3.60;;;3.30;;
16270;SDS011;8243;49.048;8.396;2023-02-19T00:57:29;3.57;;;3.27;;
16270;SDS011;8243;49.048;8.396;2023-02-19T00:59:54;3.30;;;3.10;;
16270;SDS011;8243;49.048;8.396;2023-02-19T01:02:20;3.50;;;3.20;;
16270;SDS011;8243;49.048;8.396;2023-02-19T01:04:45;3.97;;;3.67;;
16270;SDS011;8243;49.048;8.396;2023-02-19T01:07:11;3.60;;;3.30;;
16270;SDS011;8243;49.048;8.396;2023-02-19T01:09:36;3.73;;;3.43;;
16270;SDS011;8243;49.048;8.396;2023-02-19T01:12:03;3.80;;;3.50;;
16270;SDS011;8243;49.048;8.396;2023-02-19T01:14:29;3.83;;;3.50;;
16270;SDS011;8243;49.048;8.396;2023-02-19T01:16:54;3.83;;;3.53;;
16270;SDS011;8243;49.048;8.396;2023-02-19T01:19:20;3.40;;;3.17;;
16270;SDS011;8243;49.048;8.396;2023-02-19T01:21:45;3.57;;;3.10;;
16270;SDS011;8243;49.048;8.396;2023-02-19T01:24:11;3.17;;;2.97;;
16270;SDS011;8243;49.048;8.396;2023-02-19T01:26:37;3.20;;;3.00;;
16270;SDS011;8243;49.048;8.396;2023-02-19T01:29:02;3.20;;;3.00;;
16270;SDS011;8243;49.048;8.396;2023-02-19T01:31:28;2.97;;;2.70;;
16270;SDS011;8243;49.048;8.396;2023-02-19T01:33:58;3.67;;;3.30;;
16270;SDS011;8243;49.048;8.396;2023-02-19T01:36:25;3.83;;;3.07;;
16270;SDS011;8243;49.048;8.396;2023-02-19T01:38:51;3.37;;;3.07;;
16270;SDS011;8243;49.048;8.396;2023-02-19T01:41:18;3.27;;;2.97;;
16270;SDS011;8243;49.048;8.396;2023-02-19T01:44:02;2.73;;;2.53;;
16270;SDS011;8243;49.048;8.396;2023-02-19T01:46:39;3.23;;;2.93;;
16270;SDS011;8243;49.048;8.396;2023-02-19T01:49:08;2.93;;;2.73;;
16270;SDS011;8243;49.048;8.396;2023-02-19T01:51:38;2.73;;;2.53;;
16270;SDS011;8243;49.048;8.396;2023-02-19T01:54:21;3.20;;;2.90;;
16270;SDS011;8243;49.048;8.396;2023-02-19T01:56:50;2.87;;;2.67;;
16270;SDS011;8243;49.048;8.396;2023-02-19T01:59:18;3.00;;;2.80;;
16270;SDS011;8243;49.048;8.396;2023-02-19T02:01:43;2.93;;;2.57;;
16270;SDS011;8243;49.048;8.396;2023-02-19T02:04:09;2.60;;;2.40;;
16270;SDS011;8243;49.048;8.396;2023-02-19T02:06:55;2.47;;;2.27;;
16270;SDS011;8243;49.048;8.396;2023-02-19T02:09:24;2.50;;;2.30;;
16270;SDS011;8243;49.048;8.396;2023-02-19T02:12:10;2.53;;;2.30;;
16270;SDS011;8243;49.048;8.396;2023-02-19T02:14:37;2.57;;;2.37;;
16270;SDS011;8243;49.048;8.396;2023-02-19T02:17:24;2.53;;;2.33;;
16270;SDS011;8243;49.048;8.396;2023-02-19T02:22:34;2.33;;;2.13;;
16270;SDS011;8243;49.048;8.396;2023-02-19T02:25:21;2.70;;;2.50;;
16270;SDS011;8243;49.048;8.396;2023-02-19T02:30:29;2.10;;;2.00;;
16270;SDS011;8243;49.048;8.396;2023-02-19T02:35:43;2.43;;;2.23;;
16270;SDS011;8243;49.048;8.396;2023-02-19T02:38:13;2.60;;;2.40;;
16270;SDS011;8243;49.048;8.396;2023-02-19T02:40:41;2.47;;;2.20;;
16270;SDS011;8243;49.048;8.396;2023-02-19T02:43:08;2.50;;;2.30;;
16270;SDS011;8243;49.048;8.396;2023-02-19T02:45:34;2.70;;;2.50;;
16270;SDS011;8243;49.048;8.396;2023-02-19T02:48:01;3.07;;;2.27;;
16270;SDS011;8243;49.048;8.396;2023-02-19T02:53:57;2.60;;;1.97;;
16270;SDS011;8243;49.048;8.396;2023-02-19T02:56:51;2.40;;;2.20;;
16270;SDS011;8243;49.048;8.396;2023-02-19T02:59:18;2.03;;;1.80;;
16270;SDS011;8243;49.048;8.396;2023-02-19T03:07:41;2.10;;;2.00;;
16270;SDS011;8243;49.048;8.396;2023-02-19T03:10:16;2.40;;;2.20;;
16270;SDS011;8243;49.048;8.396;2023-02-19T03:12:47;2.10;;;1.90;;
16270;SDS011;8243;49.048;8.396;2023-02-19T03:15:36;2.50;;;1.97;;
16270;SDS011;8243;49.048;8.396;2023-02-19T03:18:25;2.57;;;2.37;;
16270;SDS011;8243;49.048;8.396;2023-02-19T03:21:12;2.10;;;1.90;;
16270;SDS011;8243;49.048;8.396;2023-02-19T03:23:41;2.00;;;1.80;;
16270;SDS011;8243;49.048;8.396;2023-02-19T03:26:27;2.67;;;2.13;;
16270;SDS011;8243;49.048;8.396;2023-02-19T03:28:53;2.70;;;2.00;;
16270;SDS011;8243;49.048;8.396;2023-02-19T03:31:38;2.20;;;2.00;;
16270;SDS011;8243;49.048;8.396;2023-02-19T03:34:08;1.80;;;1.70;;
16270;SDS011;8243;49.048;8.396;2023-02-19T03:36:40;1.90;;;1.80;;
16270;SDS011;8243;49.048;8.396;2023-02-19T03:39:10;2.97;;;2.00;;
16270;SDS011;8243;49.048;8.396;2023-02-19T03:47:12;2.03;;;1.83;;
16270;SDS011;8243;49.048;8.396;2023-02-19T03:55:29;2.37;;;1.80;;
16270;SDS011;8243;49.048;8.396;2023-02-19T04:03:07;2.10;;;1.87;;
16270;SDS011;8243;49.048;8.396;2023-02-19T04:05:55;1.80;;;1.70;;
16270;SDS011;8243;49.048;8.396;2023-02-19T04:08:25;1.93;;;1.83;;
16270;SDS011;8243;49.048;8.396;2023-02-19T04:10:52;1.83;;;1.73;;
16270;SDS011;8243;49.048;8.396;2023-02-19T04:13:21;2.10;;;2.00;;
16270;SDS011;8243;49.048;8.396;2023-02-19T04:15:57;2.00;;;1.90;;
16270;SDS011;8243;49.048;8.396;2023-02-19T04:18:27;2.57;;;2.10;;
16270;SDS011;8243;49.048;8.396;2023-02-19T04:20:57;2.17;;;2.07;;
16270;SDS011;8243;49.048;8.396;2023-02-19T04:23:25;2.13;;;2.00;;
16270;SDS011;8243;49.048;8.396;2023-02-19T04:25:55;2.10;;;2.00;;
16270;SDS011;8243;49.048;8.396;2023-02-19T04:28:23;1.93;;;1.83;;
16270;SDS011;8243;49.048;8.396;2023-02-19T04:30:49;2.30;;;2.10;;
16270;SDS011;8243;49.048;8.396;2023-02-19T04:33:15;1.87;;;1.77;;
16270;SDS011;8243;49.048;8.396;2023-02-19T04:35:43;1.70;;;1.60;;
16270;SDS011;8243;49.048;8.396;2023-02-19T04:38:09;2.50;;;1.73;;
16270;SDS011;8243;49.048;8.396;2023-02-19T04:40:34;1.70;;;1.60;;
16270;SDS011;8243;49.048;8.396;2023-02-19T04:43:00;2.17;;;1.80;;
16270;SDS011;8243;49.048;8.396;2023-02-19T04:45:25;1.90;;;1.80;;
16270;SDS011;8243;49.048;8.396;2023-02-19T04:47:51;2.10;;;1.90;;
16270;SDS011;8243;49.048;8.396;2023-02-19T04:50:16;1.90;;;1.80;;
16270;SDS011;8243;49.048;8.396;2023-02-19T04:52:42;1.77;;;1.60;;
16270;SDS011;8243;49.048;8.396;2023-02-19T04:55:08;1.60;;;1.50;;
16270;SDS011;8243;49.048;8.396;2023-02-19T04:57:34;1.90;;;1.70;;
16270;SDS011;8243;49.048;8.396;2023-02-19T04:59:59;2.13;;;1.93;;
16270;SDS011;8243;49.048;8.396;2023-02-19T05:02:25;3.10;;;1.90;;
16270;SDS011;8243;49.048;8.396;2023-02-19T05:04:51;1.70;;;1.60;;
16270;SDS011;8243;49.048;8.396;2023-02-19T05:07:16;1.93;;;1.63;;
16270;SDS011;8243;49.048;8.396;2023-02-19T05:09:42;1.80;;;1.70;;
16270;SDS011;8243;49.048;8.396;2023-02-19T05:12:08;1.70;;;1.50;;
16270;SDS011;8243;49.048;8.396;2023-02-19T05:14:33;1.80;;;1.70;;
16270;SDS011;8243;49.048;8.396;2023-02-19T05:16:59;2.17;;;2.00;;
16270;SDS011;8243;49.048;8.396;2023-02-19T05:19:25;2.33;;;1.80;;
16270;SDS011;8243;49.048;8.396;2023-02-19T05:21:50;2.47;;;1.57;;
16270;SDS011;8243;49.048;8.396;2023-02-19T05:24:16;1.87;;;1.70;;
16270;SDS011;8243;49.048;8.396;2023-02-19T05:26:41;1.80;;;1.70;;
16270;SDS011;8243;49.048;8.396;2023-02-19T05:29:07;2.60;;;1.87;;
16270;SDS011;8243;49.048;8.396;2023-02-19T05:31:33;1.80;;;1.70;;
16270;SDS011;8243;49.048;8.396;2023-02-19T05:33:58;2.20;;;2.10;;
16270;SDS011;8243;49.048;8.396;2023-02-19T05:36:24;2.00;;;1.90;;
16270;SDS011;8243;49.048;8.396;2023-02-19T05:38:56;2.23;;;2.03;;
16270;SDS011;8243;49.048;8.396;2023-02-19T05:41:23;2.33;;;2.13;;
16270;SDS011;8243;49.048;8.396;2023-02-19T05:43:50;2.37;;;2.17;;
16270;SDS011;8243;49.048;8.396;2023-02-19T05:46:17;2.30;;;2.10;;
16270;SDS011;8243;49.048;8.396;2023-02-19T05:48:45;2.20;;;2.00;;
16270;SDS011;8243;49.048;8.396;2023-02-19T05:51:12;2.30;;;2.10;;
16270;SDS011;8243;49.048;8.396;2023-02-19T05:53:40;2.10;;;1.90;;
16270;SDS011;8243;49.048;8.396;2023-02-19T05:58:46;2.10;;;2.00;;
16270;SDS011;8243;49.048;8.396;2023-02-19T06:01:15;2.10;;;2.00;;
16270;SDS011;8243;49.048;8.396;2023-02-19T06:03:41;1.70;;;1.60;;
16270;SDS011;8243;49.048;8.396;2023-02-19T06:06:08;2.00;;;1.80;;
16270;SDS011;8243;49.048;8.396;2023-02-19T06:08:36;2.90;;;1.70;;
16270;SDS011;8243;49.048;8.396;2023-02-19T06:11:02;1.40;;;1.30;;
16270;SDS011;8243;49.048;8.396;2023-02-19T06:13:28;1.60;;;1.50;;
16270;SDS011;8243;49.048;8.396;2023-02-19T06:15:53;1.80;;;1.70;;
16270;SDS011;8243;49.048;8.396;2023-02-19T06:18:19;1.33;;;1.23;;
16270;SDS011;8243;49.048;8.396;2023-02-19T06:20:44;2.90;;;1.70;;
16270;SDS011;8243;49.048;8.396;2023-02-19T06:23:10;1.90;;;1.80;;
16270;SDS011;8243;49.048;8.396;2023-02-19T06:25:35;1.83;;;1.73;;
16270;SDS011;8243;49.048;8.396;2023-02-19T06:28:01;1.93;;;1.80;;
16270;SDS011;8243;49.048;8.396;2023-02-19T06:30:26;2.43;;;2.00;;
16270;SDS011;8243;49.048;8.396;2023-02-19T06:32:52;3.27;;;2.03;;
16270;SDS011;8243;49.048;8.396;2023-02-19T06:35:18;2.13;;;1.93;;
16270;SDS011;8243;49.048;8.396;2023-02-19T06:37:47;2.30;;;2.10;;
16270;SDS011;8243;49.048;8.396;2023-02-19T06:40:13;2.17;;;1.93;;
16270;SDS011;8243;49.048;8.396;2023-02-19T06:42:39;1.83;;;1.73;;
16270;SDS011;8243;49.048;8.396;2023-02-19T06:45:05;4.03;;;2.00;;
16270;SDS011;8243;49.048;8.396;2023-02-19T06:47:31;2.00;;;1.90;;
16270;SDS011;8243;49.048;8.396;2023-02-19T06:49:58;1.83;;;1.73;;
16270;SDS011;8243;49.048;8.396;2023-02-19T06:52:25;1.77;;;1.67;;
16270;SDS011;8243;49.048;8.396;2023-02-19T06:54:51;1.93;;;1.70;;
16270;SDS011;8243;49.048;8.396;2023-02-19T06:57:17;1.57;;;1.47;;
16270;SDS011;8243;49.048;8.396;2023-02-19T06:59:43;1.90;;;1.70;;
16270;SDS011;8243;49.048;8.396;2023-02-19T07:02:11;1.83;;;1.70;;
16270;SDS011;8243;49.048;8.396;2023-02-19T07:04:37;2.67;;;2.10;;
16270;SDS011;8243;49.048;8.396;2023-02-19T07:07:03;1.60;;;1.50;;
16270;SDS011;8243;49.048;8.396;2023-02-19T07:09:29;1.93;;;1.80;;
16270;SDS011;8243;49.048;8.396;2023-02-19T07:11:54;1.60;;;1.50;;
16270;SDS011;8243;49.048;8.396;2023-02-19T07:14:20;1.70;;;1.60;;
16270;SDS011;8243;49.048;8.396;2023-02-19T07:16:46;1.77;;;1.67;;
16270;SDS011;8243;49.048;8.396;2023-02-19T07:19:13;1.80;;;1.70;;
16270;SDS011;8243;49.048;8.396;2023-02-19T07:21:39;1.70;;;1.60;;
16270;SDS011;8243;49.048;8.396;2023-02-19T07:24:06;1.53;;;1.43;;
16270;SDS011;8243;49.048;8.396;2023-02-19T07:26:32;2.40;;;1.50;;
16270;SDS011;8243;49.048;8.396;2023-02-19T07:28:58;1.90;;;1.80;;
16270;SDS011;8243;49.048;8.396;2023-02-19T07:31:25;1.90;;;1.80;;
16270;SDS011;8243;49.048;8.396;2023-02-19T07:33:51;1.90;;;1.80;;
16270;SDS011;8243;49.048;8.396;2023-02-19T07:36:19;2.40;;;2.20;;
16270;SDS011;8243;49.048;8.396;2023-02-19T07:38:46;2.23;;;2.03;;
16270;SDS011;8243;49.048;8.396;2023-02-19T07:41:16;2.10;;;1.90;;
16270;SDS011;8243;49.048;8.396;2023-02-19T07:43:42;2.60;;;2.40;;
16270;SDS011;8243;49.048;8.396;2023-02-19T07:46:09;2.63;;;2.10;;
16270;SDS011;8243;49.048;8.396;2023-02-19T07:48:36;2.20;;;2.00;;
16270;SDS011;8243;49.048;8.396;2023-02-19T07:51:03;2.27;;;2.07;;
16270;SDS011;8243;49.048;8.396;2023-02-19T07:53:30;2.00;;;1.90;;
16270;SDS011;8243;49.048;8.396;2023-02-19T07:56:00;2.20;;;2.00;;
16270;SDS011;8243;49.048;8.396;2023-02-19T07:58:27;2.03;;;1.93;;
16270;SDS011;8243;49.048;8.396;2023-02-19T08:00:53;1.93;;;1.83;;
16270;SDS011;8243;49.048;8.396;2023-02-19T08:03:19;2.03;;;1.83;;
16270;SDS011;8243;49.048;8.396;2023-02-19T08:05:44;2.50;;;2.30;;
16270;SDS011;8243;49.048;8.396;2023-02-19T08:08:11;3.10;;;2.40;;
16270;SDS011;8243;49.048;8.396;2023-02-19T08:10:38;2.53;;;2.30;;
16270;SDS011;8243;49.048;8.396;2023-02-19T08:13:22;2.40;;;2.20;;
16270;SDS011;8243;49.048;8.396;2023-02-19T08:15:55;2.50;;;2.30;;
16270;SDS011;8243;49.048;8.396;2023-02-19T08:18:28;2.70;;;2.43;;
16270;SDS011;8243;49.048;8.396;2023-02-19T08:20:55;2.80;;;2.60;;
16270;SDS011;8243;49.048;8.396;2023-02-19T08:23:22;2.77;;;2.57;;
16270;SDS011;8243;49.048;8.396;2023-02-19T08:25:48;2.67;;;2.47;;
16270;SDS011;8243;49.048;8.396;2023-02-19T08:28:15;3.60;;;3.30;;
16270;SDS011;8243;49.048;8.396;2023-02-19T08:30:41;3.30;;;3.00;;
16270;SDS011;8243;49.048;8.396;2023-02-19T08:33:09;3.03;;;2.83;;
16270;SDS011;8243;49.048;8.396;2023-02-19T08:35:39;3.33;;;3.03;;
16270;SDS011;8243;49.048;8.396;2023-02-19T08:38:06;3.50;;;3.20;;
16270;SDS011;8243;49.048;8.396;2023-02-19T08:40:33;3.20;;;2.90;;
16270;SDS011;8243;49.048;8.396;2023-02-19T08:43:01;3.47;;;2.30;;
16270;SDS011;8243;49.048;8.396;2023-02-19T08:45:32;3.27;;;2.97;;
16270;SDS011;8243;49.048;8.396;2023-02-19T08:47:58;2.90;;;2.70;;
16270;SDS011;8243;49.048;8.396;2023-02-19T08:50:24;3.60;;;2.90;;
16270;SDS011;8243;49.048;8.396;2023-02-19T08:52:50;2.83;;;2.40;;
16270;SDS011;8243;49.048;8.396;2023-02-19T08:55:16;3.40;;;3.00;;
16270;SDS011;8243;49.048;8.396;2023-02-19T08:57:42;3.17;;;2.87;;
16270;SDS011;8243;49.048;8.396;2023-02-19T09:00:07;2.63;;;2.43;;
16270;SDS011;8243;49.048;8.396;2023-02-19T09:02:34;3.90;;;2.80;;
16270;SDS011;8243;49.048;8.396;2023-02-19T09:05:00;3.20;;;2.33;;
16270;SDS011;8243;49.048;8.396;2023-02-19T09:07:25;3.20;;;2.90;;
16270;SDS011;8243;49.048;8.396;2023-02-19T09:09:51;4.30;;;2.40;;
16270;SDS011;8243;49.048;8.396;2023-02-19T09:12:17;2.87;;;2.67;;
16270;SDS011;8243;49.048;8.396;2023-02-19T09:14:43;4.43;;;2.23;;
16270;SDS011;8243;49.048;8.396;2023-02-19T09:17:09;2.60;;;2.40;;
16270;SDS011;8243;49.048;8.396;2023-02-19T09:19:34;2.90;;;2.40;;
16270;SDS011;8243;49.048;8.396;2023-02-19T09:22:00;2.57;;;2.20;;
16270;SDS011;8243;49.048;8.396;2023-02-19T09:24:27;2.57;;;2.37;;
16270;SDS011;8243;49.048;8.396;2023-02-19T09:26:53;3.50;;;2.50;;
16270;SDS011;8243;49.048;8.396;2023-02-19T09:29:19;2.87;;;2.27;;
16270;SDS011;8243;49.048;8.396;2023-02-19T09:31:46;2.60;;;2.40;;
16270;SDS011;8243;49.048;8.396;2023-02-19T09:34:11;2.90;;;2.50;;
16270;SDS011;8243;49.048;8.396;2023-02-19T09:36:37;3.57;;;2.30;;
16270;SDS011;8243;49.048;8.396;2023-02-19T09:39:04;3.03;;;2.20;;
16270;SDS011;8243;49.048;8.396;2023-02-19T09:41:35;2.80;;;2.60;;
16270;SDS011;8243;49.048;8.396;2023-02-19T09:44:32;4.67;;;2.30;;
16270;SDS011;8243;49.048;8.396;2023-02-19T09:47:16;3.50;;;2.50;;
16270;SDS011;8243;49.048;8.396;2023-02-19T09:49:46;3.93;;;2.40;;
16270;SDS011;8243;49.048;8.396;2023-02-19T09:52:18;2.63;;;2.40;;
16270;SDS011;8243;49.048;8.396;2023-02-19T09:54:49;3.00;;;2.20;;
16270;SDS011;8243;49.048;8.396;2023-02-19T09:57:21;2.47;;;2.27;;
16270;SDS011;8243;49.048;8.396;2023-02-19T09:59:51;3.47;;;2.50;;
16270;SDS011;8243;49.048;8.396;2023-02-19T10:02:29;4.83;;;2.40;;
16270;SDS011;8243;49.048;8.396;2023-02-19T10:04:55;2.67;;;2.33;;
16270;SDS011;8243;49.048;8.396;2023-02-19T10:07:22;2.87;;;2.37;;
16270;SDS011;8243;49.048;8.396;2023-02-19T10:09:54;3.07;;;2.50;;
16270;SDS011;8243;49.048;8.396;2023-02-19T10:12:27;3.13;;;2.43;;
16270;SDS011;8243;49.048;8.396;2023-02-19T10:14:59;3.13;;;2.57;;
16270;SDS011;8243;49.048;8.396;2023-02-19T10:17:33;2.87;;;2.57;;
16270;SDS011;8243;49.048;8.396;2023-02-19T10:20:00;2.67;;;2.37;;
16270;SDS011;8243;49.048;8.396;2023-02-19T10:22:29;6.20;;;2.50;;
16270;SDS011;8243;49.048;8.396;2023-02-19T10:24:56;3.43;;;2.70;;
16270;SDS011;8243;49.048;8.396;2023-02-19T10:27:25;5.27;;;2.60;;
16270;SDS011;8243;49.048;8.396;2023-02-19T10:29:53;2.80;;;2.50;;
16270;SDS011;8243;49.048;8.396;2023-02-19T10:32:21;2.60;;;2.40;;
16270;SDS011;8243;49.048;8.396;2023-02-19T10:37:34;3.87;;;2.50;;
16270;SDS011;8243;49.048;8.396;2023-02-19T10:40:10;3.70;;;2.53;;
16270;SDS011;8243;49.048;8.396;2023-02-19T10:42:47;2.90;;;2.60;;
16270;SDS011;8243;49.048;8.396;2023-02-19T10:45:18;5.03;;;2.77;;
16270;SDS011;8243;49.048;8.396;2023-02-19T10:47:48;3.30;;;2.90;;
16270;SDS011;8243;49.048;8.396;2023-02-19T10:50:24;2.80;;;2.40;;
16270;SDS011;8243;49.048;8.396;2023-02-19T10:52:54;4.53;;;2.67;;
16270;SDS011;8243;49.048;8.396;2023-02-19T10:57:47;3.23;;;2.63;;
16270;SDS011;8243;49.048;8.396;2023-02-19T11:02:40;5.50;;;2.63;;
16270;SDS011;8243;49.048;8.396;2023-02-19T11:07:36;4.40;;;2.47;;
16270;SDS011;8243;49.048;8.396;2023-02-19T11:10:17;3.20;;;2.33;;
16270;SDS011;8243;49.048;8.396;2023-02-19T11:12:46;3.97;;;2.13;;
16270;SDS011;8243;49.048;8.396;2023-02-19T11:15:21;2.97;;;2.30;;
16270;SDS011;8243;49.048;8.396;2023-02-19T11:17:55;4.60;;;2.60;;
16270;SDS011;8243;49.048;8.396;2023-02-19T11:20:21;3.63;;;2.53;;
16270;SDS011;8243;49.048;8.396;2023-02-19T11:22:47;4.13;;;2.53;;
16270;SDS011;8243;49.048;8.396;2023-02-19T11:30:33;3.03;;;2.30;;
16270;SDS011;8243;49.048;8.396;2023-02-19T11:38:39;4.17;;;3.33;;
16270;SDS011;8243;49.048;8.396;2023-02-19T11:41:26;3.40;;;2.80;;
16270;SDS011;8243;49.048;8.396;2023-02-19T11:58:49;3.93;;;2.53;;
16270;SDS011;8243;49.048;8.396;2023-02-19T12:09:30;5.37;;;2.70;;
16270;SDS011;8243;49.048;8.396;2023-02-19T12:12:26;3.10;;;2.80;;
16270;SDS011;8243;49.048;8.396;2023-02-19T12:17:46;4.80;;;3.20;;
16270;SDS011;8243;49.048;8.396;2023-02-19T12:20:25;4.30;;;2.70;;
16270;SDS011;8243;49.048;8.396;2023-02-19T12:45:23;4.90;;;2.57;;
16270;SDS011;8243;49.048;8.396;2023-02-19T12:50:42;3.07;;;2.70;;
16270;SDS011;8243;49.048;8.396;2023-02-19T12:55:58;6.50;;;2.70;;
16270;SDS011;8243;49.048;8.396;2023-02-19T12:58:28;2.63;;;1.90;;
16270;SDS011;8243;49.048;8.396;2023-02-19T13:01:19;3.90;;;2.37;;
16270;SDS011;8243;49.048;8.396;2023-02-19T13:03:52;3.73;;;2.63;;
16270;SDS011;8243;49.048;8.396;2023-02-19T13:06:32;2.53;;;2.30;;
16270;SDS011;8243;49.048;8.396;2023-02-19T13:09:10;4.77;;;2.67;;
16270;SDS011;8243;49.048;8.396;2023-02-19T13:20:06;2.50;;;1.80;;
16270;SDS011;8243;49.048;8.396;2023-02-19T13:22:40;6.93;;;2.77;;
16270;SDS011;8243;49.048;8.396;2023-02-19T13:31:15;4.00;;;2.80;;
16270;SDS011;8243;49.048;8.396;2023-02-19T13:36:45;4.27;;;2.10;;
16270;SDS011;8243;49.048;8.396;2023-02-19T13:39:12;3.87;;;2.00;;
16270;SDS011;8243;49.048;8.396;2023-02-19T13:41:50;5.70;;;3.90;;
16270;SDS011;8243;49.048;8.396;2023-02-19T13:44:19;3.23;;;2.10;;
16270;SDS011;8243;49.048;8.396;2023-02-19T13:46:52;2.97;;;1.93;;
16270;SDS011;8243;49.048;8.396;2023-02-19T13:52:01;4.23;;;2.00;;
16270;SDS011;8243;49.048;8.396;2023-02-19T13:54:47;3.43;;;2.00;;
16270;SDS011;8243;49.048;8.396;2023-02-19T13:59:48;4.60;;;2.20;;
16270;SDS011;8243;49.048;8.396;2023-02-19T14:04:47;4.77;;;2.43;;
16270;SDS011;8243;49.048;8.396;2023-02-19T14:09:45;4.33;;;2.53;;
16270;SDS011;8243;49.048;8.396;2023-02-19T14:19:54;3.73;;;2.40;;
16270;SDS011;8243;49.048;8.396;2023-02-19T14:25:17;7.93;;;3.13;;
16270;SDS011;8243;49.048;8.396;2023-02-19T14:27:48;4.40;;;2.50;;
16270;SDS011;8243;49.048;8.396;2023-02-19T14:30:16;4.47;;;2.80;;
16270;SDS011;8243;49.048;8.396;2023-02-19T14:32:42;5.90;;;2.50;;
16270;SDS011;8243;49.048;8.396;2023-02-19T14:35:21;4.03;;;2.80;;
16270;SDS011;8243;49.048;8.396;2023-02-19T14:37:55;4.57;;;2.73;;
16270;SDS011;8243;49.048;8.396;2023-02-19T14:40:22;4.53;;;2.50;;
16270;SDS011;8243;49.048;8.396;2023-02-19T14:42:53;5.30;;;2.83;;
16270;SDS011;8243;49.048;8.396;2023-02-19T14:45:21;6.97;;;2.83;;
16270;SDS011;8243;49.048;8.396;2023-02-19T14:47:48;4.70;;;2.60;;
16270;SDS011;8243;49.048;8.396;2023-02-19T14:50:29;3.03;;;2.30;;
16270;SDS011;8243;49.048;8.396;2023-02-19T14:52:57;4.83;;;2.30;;
16270;SDS011;8243;49.048;8.396;2023-02-19T14:55:35;2.67;;;1.80;;
16270;SDS011;8243;49.048;8.396;2023-02-19T14:58:03;3.87;;;1.90;;
16270;SDS011;8243;49.048;8.396;2023-02-19T15:00:35;4.80;;;2.20;;
16270;SDS011;8243;49.048;8.396;2023-02-19T15:03:02;4.30;;;2.10;;
16270;SDS011;8243;49.048;8.396;2023-02-19T15:05:33;4.57;;;2.30;;
16270;SDS011;8243;49.048;8.396;2023-02-19T15:08:01;3.63;;;2.20;;
16270;SDS011;8243;49.048;8.396;2023-02-19T15:10:31;3.50;;;2.53;;
16270;SDS011;8243;49.048;8.396;2023-02-19T15:12:59;3.37;;;2.07;;
16270;SDS011;8243;49.048;8.396;2023-02-19T15:15:34;4.30;;;2.20;;
16270;SDS011;8243;49.048;8.396;2023-02-19T15:18:03;5.63;;;2.07;;
16270;SDS011;8243;49.048;8.396;2023-02-19T15:20:30;4.40;;;2.40;;
16270;SDS011;8243;49.048;8.396;2023-02-19T15:22:58;7.10;;;3.53;;
16270;SDS011;8243;49.048;8.396;2023-02-19T15:25:26;7.20;;;2.63;;
16270;SDS011;8243;49.048;8.396;2023-02-19T15:33:23;5.37;;;2.93;;
16270;SDS011;8243;49.048;8.396;2023-02-19T15:35:51;4.40;;;2.40;;
16270;SDS011;8243;49.048;8.396;2023-02-19T15:38:19;5.10;;;2.90;;
16270;SDS011;8243;49.048;8.396;2023-02-19T15:40:46;6.80;;;2.90;;
16270;SDS011;8243;49.048;8.396;2023-02-19T15:43:19;4.47;;;2.70;;
16270;SDS011;8243;49.048;8.396;2023-02-19T15:46:10;4.30;;;2.80;;
16270;SDS011;8243;49.048;8.396;2023-02-19T15:48:49;5.20;;;2.90;;
16270;SDS011;8243;49.048;8.396;2023-02-19T15:51:51;4.17;;;2.93;;
16270;SDS011;8243;49.048;8.396;2023-02-19T15:56:50;5.00;;;2.90;;
16270;SDS011;8243;49.048;8.396;2023-02-19T16:01:56;7.30;;;3.37;;
16270;SDS011;8243;49.048;8.396;2023-02-19T16:04:22;6.97;;;3.77;;
16270;SDS011;8243;49.048;8.396;2023-02-19T16:09:19;6.77;;;4.17;;
16270;SDS011;8243;49.048;8.396;2023-02-19T16:11:54;8.10;;;3.77;;
16270;SDS011;8243;49.048;8.396;2023-02-19T16:19:29;7.03;;;3.50;;
16270;SDS011;8243;49.048;8.396;2023-02-19T16:21:59;7.93;;;3.27;;
16270;SDS011;8243;49.048;8.396;2023-02-19T16:24:32;6.77;;;3.50;;
16270;SDS011;8243;49.048;8.396;2023-02-19T16:27:00;8.80;;;3.57;;
16270;SDS011;8243;49.048;8.396;2023-02-19T16:29:28;6.03;;;3.23;;
16270;SDS011;8243;49.048;8.396;2023-02-19T16:31:59;7.50;;;3.50;;
16270;SDS011;8243;49.048;8.396;2023-02-19T16:42:33;5.33;;;3.00;;
16270;SDS011;8243;49.048;8.396;2023-02-19T16:45:21;5.23;;;3.10;;
16270;SDS011;8243;49.048;8.396;2023-02-19T16:47:47;7.90;;;3.03;;
16270;SDS011;8243;49.048;8.396;2023-02-19T16:50:16;7.83;;;2.87;;
16270;SDS011;8243;49.048;8.396;2023-02-19T16:55:26;7.50;;;3.87;;
16270;SDS011;8243;49.048;8.396;2023-02-19T16:57:52;6.93;;;3.27;;
16270;SDS011;8243;49.048;8.396;2023-02-19T17:00:19;7.07;;;3.00;;
16270;SDS011;8243;49.048;8.396;2023-02-19T17:02:45;8.17;;;3.07;;
16270;SDS011;8243;49.048;8.396;2023-02-19T17:05:13;5.80;;;3.47;;
16270;SDS011;8243;49.048;8.396;2023-02-19T17:11:03;8.07;;;2.80;;
16270;SDS011;8243;49.048;8.396;2023-02-19T17:13:30;3.97;;;2.30;;
16270;SDS011;8243;49.048;8.396;2023-02-19T17:15:56;5.93;;;2.90;;
16270;SDS011;8243;49.048;8.396;2023-02-19T17:18:22;4.50;;;2.60;;
16270;SDS011;8243;49.048;8.396;2023-02-19T17:20:58;5.23;;;3.00;;
16270;SDS011;8243;49.048;8.396;2023-02-19T17:23:29;5.07;;;2.43;;
16270;SDS011;8243;49.048;8.396;2023-02-19T17:25:54;6.87;;;2.50;;
16270;SDS011;8243;49.048;8.396;2023-02-19T17:28:20;6.93;;;2.93;;
16270;SDS011;8243;49.048;8.396;2023-02-19T17:30:45;5.80;;;2.80;;
16270;SDS011;8243;49.048;8.396;2023-02-19T17:33:11;8.73;;;4.37;;
16270;SDS011;8243;49.048;8.396;2023-02-19T17:35:36;7.00;;;3.10;;
16270;SDS011;8243;49.048;8.396;2023-02-19T17:38:02;8.80;;;5.23;;
16270;SDS011;8243;49.048;8.396;2023-02-19T17:40:33;5.03;;;2.83;;
16270;SDS011;8243;49.048;8.396;2023-02-19T17:42:59;7.37;;;4.70;;
16270;SDS011;8243;49.048;8.396;2023-02-19T17:45:25;10.37;;;4.60;;
16270;SDS011;8243;49.048;8.396;2023-02-19T17:47:51;8.57;;;4.80;;
16270;SDS011;8243;49.048;8.396;2023-02-19T17:50:19;7.77;;;3.73;;
16270;SDS011;8243;49.048;8.396;2023-02-19T17:52:46;8.77;;;2.90;;
16270;SDS011;8243;49.048;8.396;2023-02-19T17:55:12;7.23;;;3.20;;
16270;SDS011;8243;49.048;8.396;2023-02-19T17:57:41;8.33;;;3.87;;
16270;SDS011;8243;49.048;8.396;2023-02-19T18:00:07;9.43;;;3.23;;
16270;SDS011;8243;49.048;8.396;2023-02-19T18:02:34;6.93;;;3.10;;
16270;SDS011;8243;49.048;8.396;2023-02-19T18:05:00;5.53;;;3.10;;
16270;SDS011;8243;49.048;8.396;2023-02-19T18:07:25;9.00;;;3.57;;
16270;SDS011;8243;49.048;8.396;2023-02-19T18:09:51;6.63;;;4.27;;
16270;SDS011;8243;49.048;8.396;2023-02-19T18:12:16;10.00;;;4.50;;
16270;SDS011;8243;49.048;8.396;2023-02-19T18:14:43;5.23;;;3.00;;